Lima Center, Michigan
Current Conditions -  °F | °C
As of 5:53 AM on Monday 20 Oct 2014 (Local Time) from KARB Reporting Station
Overcast Overcast  
Wind Chill: 44°   Ceiling: 4400
Heat Index: 47°   Visibility: 10mi
Dew Point: 41°   Wind: 6mph
Humidity: 80%   Direction: 200°SSW
Pressure: 29.88"   Gusts: NA
Location:  42.3129°N, 84.0322°W
Report Text: KARB 200953Z AUTO 20005KT 10SM BKN044 OVC075 08/05 A2988 RMK AO2 RAE01 SLP120 P0000 T00830050
Loading
Personal Weather Stations






























Interactive Weather Map
Tropical Storm Tracking
New forecast layout! Learn more

10-Day Weather Forecast

Advertisements
Track Severe Weather on mobile